Peru, IL

4:27 PM CDT on June 23, 2017 (GMT -0500)
Illinois Valley Regional-Duncan

Weather History for KVYS - October, 2010

Change the Weather History Date:

Wednesday, October 27, 2010

  Actual Average Record
Temperature  
Mean Temperature 58 °F -  
Max Temperature 65 °F 61 °F 77 °F (2014)
Min Temperature 51 °F 38 °F 23 °F (1969)
Degree Days  
Heating Degree Days 6    
Growing Degree Days 8 (Base 50)    
Moisture  
Dew Point 34 °F    
Average Humidity 42    
Maximum Humidity 55    
Minimum Humidity 25    
Precipitation  
Precipitation 0.00 in - - ()
Sea Level Pressure  
Sea Level Pressure 29.58 in    
Wind  
Wind Speed 21 mph (WSW)    
Max Wind Speed 39 mph    
Max Gust Speed 58 mph    
Visibility 10 miles    
Events      
Averages and records for this station are not official NWS values.
T = Trace of Precipitation, MM = Missing Value Source: NWS Daily Summary

Daily Weather History Graph

Daily Weather History Graph

Search for Another Location

Airport or City:

Trip Planner

Search our weather history database for the weather conditions in past years. The results will help you decide how hot, cold, wet, or windy it might be!

Date:

Astronomy

Oct. 27, 2010 Rise Set
Actual Time 7:22 AM CDT 5:58 PM CDT
Civil Twilight 6:53 AM CDT 6:26 PM CDT
Nautical Twilight 6:21 AM CDT 6:58 PM CDT
Astronomical Twilight 5:49 AM CDT 7:31 PM CDT
Moon 9:19 PM CDT (10/27) 11:58 AM CDT (10/27)
Length of Visible Light 11h 32m
Length of Day
10h 36m
Waning Gibbous, 79% of the Moon is Illuminated
Oct 27
Waning Gibbous
Oct 30
Last Quarter
Nov 5
New
Nov 13
First Quarter
Nov 21
Full

Hourly Weather History & Observations

Time (CDT) Temp. Windchill Dew Point Humidity Pressure Visibility Wind Dir Wind Speed Gust Speed Precip Events Conditions
12:03 AM 56.5 °F - 38.1 °F 50% 29.46 in 10.0 mi SW 21.9 mph 29.9 mph N/A   Clear
12:23 AM 56.3 °F - 37.6 °F 50% 29.47 in 10.0 mi SW 19.6 mph 28.8 mph N/A   Clear
12:43 AM 55.9 °F - 37.6 °F 50% 29.47 in 10.0 mi SW 19.6 mph 24.2 mph N/A   Clear
1:03 AM 55.4 °F - 37.8 °F 52% 29.47 in 10.0 mi SW 19.6 mph 26.5 mph N/A   Clear
1:23 AM 55.0 °F - 38.7 °F 54% 29.48 in 10.0 mi SW 17.3 mph 21.9 mph N/A   Clear
1:43 AM 54.7 °F - 38.1 °F 54% 29.48 in 10.0 mi SW 19.6 mph - N/A   Clear
2:03 AM 54.3 °F - 37.8 °F 54% 29.49 in 10.0 mi SW 15.0 mph - N/A   Clear
2:23 AM 54.9 °F - 37.6 °F 52% 29.50 in 10.0 mi SW 17.3 mph 21.9 mph N/A   Clear
2:43 AM 54.0 °F - 37.2 °F 53% 29.50 in 10.0 mi SW 16.1 mph - N/A   Clear
3:03 AM 54.1 °F - 36.9 °F 52% 29.50 in 10.0 mi SW 15.0 mph - N/A   Clear
3:23 AM 53.1 °F - 37.2 °F 55% 29.50 in 10.0 mi SW 12.7 mph - N/A   Clear
3:43 AM 53.1 °F - 36.9 °F 54% 29.50 in 10.0 mi SW 15.0 mph 20.7 mph N/A   Clear
4:03 AM 53.6 °F - 36.5 °F 52% 29.50 in 10.0 mi SW 18.4 mph 24.2 mph N/A   Clear
4:23 AM 53.2 °F - 36.3 °F 53% 29.50 in 10.0 mi SW 17.3 mph - N/A   Clear
4:43 AM 53.2 °F - 36.1 °F 52% 29.51 in 10.0 mi SW 17.3 mph 24.2 mph N/A   Clear
5:03 AM 53.1 °F - 36.3 °F 53% 29.51 in 10.0 mi SW 17.3 mph 23.0 mph N/A   Clear
5:23 AM 53.2 °F - 35.8 °F 52% 29.52 in 10.0 mi SW 18.4 mph 25.3 mph N/A   Clear
5:43 AM 53.2 °F - 35.6 °F 51% 29.52 in 10.0 mi SW 18.4 mph 23.0 mph N/A   Clear
6:03 AM 53.1 °F - 35.4 °F 51% 29.53 in 10.0 mi SW 17.3 mph - N/A   Clear
6:23 AM 52.9 °F - 35.1 °F 51% 29.53 in 10.0 mi SW 17.3 mph - N/A   Clear
6:43 AM 52.9 °F - 35.1 °F 51% 29.55 in 10.0 mi SW 19.6 mph 24.2 mph N/A   Clear
7:03 AM 52.7 °F - 35.8 °F 53% 29.55 in 10.0 mi SW 20.7 mph 25.3 mph N/A   Clear
7:23 AM 53.6 °F - 35.6 °F 51% 29.57 in 10.0 mi SW 20.7 mph 29.9 mph N/A   Clear
7:43 AM 52.7 °F - 35.1 °F 51% 29.58 in 10.0 mi WSW 17.3 mph 26.5 mph N/A   Clear
8:03 AM 52.9 °F - 34.9 °F 50% 29.59 in 10.0 mi WSW 20.7 mph - N/A   Clear
8:23 AM 53.2 °F - 34.9 °F 50% 29.59 in 10.0 mi SW 16.1 mph 26.5 mph N/A   Clear
8:43 AM 54.0 °F - 34.7 °F 48% 29.60 in 10.0 mi WSW 18.4 mph 31.1 mph N/A   Clear
9:03 AM 55.4 °F - 35.1 °F 46% 29.62 in 10.0 mi SW 17.3 mph 23.0 mph N/A   Clear
9:23 AM 55.4 °F - 34.2 °F 45% 29.61 in 10.0 mi WSW 19.6 mph 26.5 mph N/A   Clear
9:43 AM 56.3 °F - 34.3 °F 44% 29.62 in 10.0 mi WSW 13.8 mph 27.6 mph N/A   Clear
10:03 AM 57.2 °F - 33.6 °F 41% 29.62 in 10.0 mi SW 20.7 mph 27.6 mph N/A   Clear
10:23 AM 58.1 °F - 32.2 °F 38% 29.62 in 10.0 mi WSW 19.6 mph 34.5 mph N/A   Clear
10:43 AM 59.0 °F - 32.0 °F 36% 29.61 in 10.0 mi WSW 20.7 mph 29.9 mph N/A   Clear
11:03 AM 60.3 °F - 31.8 °F 34% 29.61 in 10.0 mi SW 24.2 mph 31.1 mph N/A   Clear
11:23 AM 60.6 °F - 30.6 °F 32% 29.60 in 10.0 mi SW 25.3 mph 32.2 mph N/A   Clear
11:43 AM 61.7 °F - 30.4 °F 31% 29.60 in 10.0 mi WSW 26.5 mph 36.8 mph N/A   Clear
12:03 PM 62.8 °F - 30.9 °F 30% 29.59 in 10.0 mi SW 26.5 mph 34.5 mph N/A   Clear
12:23 PM 63.5 °F - 30.9 °F 29% 29.58 in 10.0 mi WSW 29.9 mph 42.6 mph N/A   Clear
12:43 PM 64.4 °F - 30.7 °F 28% 29.58 in 10.0 mi SW 28.8 mph 47.2 mph N/A   Clear
1:03 PM 64.6 °F - 28.9 °F 26% 29.57 in 10.0 mi WSW 35.7 mph 49.5 mph N/A   Clear
1:23 PM 64.6 °F - 28.9 °F 26% 29.58 in 10.0 mi WSW 36.8 mph 51.8 mph N/A   Clear
1:43 PM 64.4 °F - 30.2 °F 28% 29.58 in 10.0 mi WSW 33.4 mph 48.3 mph N/A   Clear
2:03 PM 64.4 °F - 30.0 °F 28% 29.57 in 10.0 mi WSW 33.4 mph 48.3 mph N/A   Clear
2:23 PM 64.4 °F - 28.0 °F 25% 29.58 in 10.0 mi WSW 33.4 mph 48.3 mph N/A   Clear
2:43 PM 64.4 °F - 28.2 °F 26% 29.58 in 10.0 mi WSW 38.0 mph 57.5 mph N/A   Clear
3:03 PM 65.1 °F - 30.2 °F 27% 29.59 in 10.0 mi WSW 31.1 mph 39.1 mph N/A   Clear
3:23 PM 64.4 °F - 28.0 °F 25% 29.59 in 10.0 mi WSW 39.1 mph 51.8 mph N/A   Clear
3:43 PM 64.0 °F - 28.6 °F 26% 29.60 in 10.0 mi WSW 38.0 mph 55.2 mph N/A   Clear
4:03 PM 62.8 °F - 30.0 °F 29% 29.62 in 10.0 mi West 35.7 mph 47.2 mph N/A   Clear
4:23 PM 62.1 °F - 31.3 °F 31% 29.63 in 10.0 mi West 29.9 mph 42.6 mph N/A   Clear
4:43 PM 60.8 °F - 32.0 °F 34% 29.64 in 10.0 mi West 29.9 mph 36.8 mph N/A   Clear
5:03 PM 60.3 °F - 32.2 °F 35% 29.66 in 10.0 mi West 27.6 mph 38.0 mph N/A   Scattered Clouds
5:23 PM 59.2 °F - 32.5 °F 37% 29.67 in 10.0 mi West 23.0 mph 33.4 mph N/A   Clear
5:43 PM 57.6 °F - 32.9 °F 39% 29.68 in 10.0 mi West 21.9 mph 34.5 mph N/A   Clear
6:03 PM 55.9 °F - 32.5 °F 41% 29.70 in 10.0 mi West 25.3 mph 34.5 mph N/A   Clear
6:23 PM 54.9 °F - 33.6 °F 45% 29.72 in 10.0 mi West 16.1 mph 24.2 mph N/A   Clear
6:43 PM 54.1 °F - 32.5 °F 44% 29.74 in 10.0 mi West 18.4 mph 27.6 mph N/A   Scattered Clouds
7:03 PM 52.7 °F - 33.3 °F 48% 29.76 in 10.0 mi WNW 15.0 mph 25.3 mph N/A   Mostly Cloudy
7:23 PM 51.8 °F - 32.9 °F 49% 29.77 in 10.0 mi West 19.6 mph 27.6 mph N/A   Overcast
7:43 PM 51.4 °F - 33.3 °F 50% 29.78 in 10.0 mi West 16.1 mph 24.2 mph N/A   Overcast
8:03 PM 50.2 °F - 32.0 °F 50% 29.80 in 10.0 mi West 19.6 mph 31.1 mph N/A   Mostly Cloudy
8:23 PM 48.2 °F - 31.8 °F 53% 29.81 in 10.0 mi West 17.3 mph 29.9 mph N/A   Scattered Clouds
8:43 PM 46.4 °F 39.0 °F 32.2 °F 58% 29.82 in 10.0 mi West 19.6 mph 26.5 mph N/A   Clear
9:03 PM 45.0 °F 37.9 °F 32.0 °F 60% 29.83 in 10.0 mi West 16.1 mph 21.9 mph N/A   Clear
9:23 PM 45.0 °F 36.4 °F 32.9 °F 63% 29.83 in 10.0 mi West 23.0 mph 34.5 mph N/A   Scattered Clouds
9:43 PM 44.1 °F 36.8 °F 33.3 °F 66% 29.85 in 10.0 mi West 16.1 mph 34.5 mph N/A   Scattered Clouds
10:03 PM 44.1 °F 34.8 °F 32.7 °F 64% 29.85 in 10.0 mi West 25.3 mph 38.0 mph N/A   Scattered Clouds
10:23 PM 44.2 °F 35.4 °F 33.1 °F 65% 29.86 in 10.0 mi West 23.0 mph 31.1 mph N/A   Overcast
10:43 PM 44.2 °F 35.7 °F 32.2 °F 63% 29.87 in 10.0 mi West 21.9 mph 31.1 mph N/A   Overcast
11:03 PM 44.1 °F 35.2 °F 32.2 °F 63% 29.88 in 10.0 mi West 23.0 mph 31.1 mph N/A   Overcast
11:23 PM 43.7 °F 34.7 °F 32.0 °F 63% 29.88 in 10.0 mi West 23.0 mph 41.4 mph N/A   Overcast
11:43 PM 43.5 °F 33.6 °F 32.0 °F 64% 29.89 in 10.0 mi West 27.6 mph 33.4 mph N/A   Overcast